sensor_id;sensor_type;location;lat;lon;timestamp;pressure;altitude;pressure_sealevel;temperature;humidity
13734;BME280;43298;52.560;13.508;2023-02-28T00:01:25;102576.16;;;1.28;100.00
13734;BME280;43298;52.560;13.508;2023-02-28T00:03:51;102577.53;;;1.17;100.00
13734;BME280;43298;52.560;13.508;2023-02-28T00:06:17;102569.75;;;1.11;100.00
13734;BME280;43298;52.560;13.508;2023-02-28T00:08:43;102572.22;;;1.08;100.00
13734;BME280;43298;52.560;13.508;2023-02-28T00:11:13;102572.22;;;1.08;100.00
13734;BME280;43298;52.560;13.508;2023-02-28T00:13:43;102572.19;;;1.07;100.00
13734;BME280;43298;52.560;13.508;2023-02-28T00:16:15;102575.47;;;1.03;100.00
13734;BME280;43298;52.560;13.508;2023-02-28T00:18:42;102581.41;;;1.02;100.00
13734;BME280;43298;52.560;13.508;2023-02-28T00:21:08;102577.00;;;0.98;100.00
13734;BME280;43298;52.560;13.508;2023-02-28T00:23:35;102582.06;;;0.95;100.00
13734;BME280;43298;52.560;13.508;2023-02-28T00:26:01;102582.00;;;0.93;100.00
13734;BME280;43298;52.560;13.508;2023-02-28T00:28:27;102578.53;;;0.91;100.00
13734;BME280;43298;52.560;13.508;2023-02-28T00:30:52;102580.97;;;0.87;100.00
13734;BME280;43298;52.560;13.508;2023-02-28T00:33:19;102582.72;;;0.88;100.00
13734;BME280;43298;52.560;13.508;2023-02-28T00:35:44;102592.84;;;0.86;100.00
13734;BME280;43298;52.560;13.508;2023-02-28T00:38:15;102583.47;;;0.85;100.00
13734;BME280;43298;52.560;13.508;2023-02-28T00:40:41;102575.75;;;0.82;100.00
13734;BME280;43298;52.560;13.508;2023-02-28T00:43:07;102585.03;;;0.80;100.00
13734;BME280;43298;52.560;13.508;2023-02-28T00:45:33;102584.84;;;0.74;100.00
13734;BME280;43298;52.560;13.508;2023-02-28T00:47:59;102584.81;;;0.73;100.00
13734;BME280;43298;52.560;13.508;2023-02-28T00:50:25;102587.19;;;0.67;100.00
13734;BME280;43298;52.560;13.508;2023-02-28T00:52:50;102581.19;;;0.65;100.00
13734;BME280;43298;52.560;13.508;2023-02-28T00:55:16;102581.06;;;0.60;100.00
13734;BME280;43298;52.560;13.508;2023-02-28T00:57:42;102586.16;;;0.60;100.00
13734;BME280;43298;52.560;13.508;2023-02-28T01:00:09;102585.13;;;0.54;100.00
13734;BME280;43298;52.560;13.508;2023-02-28T01:02:35;102581.56;;;0.47;100.00
13734;BME280;43298;52.560;13.508;2023-02-28T01:05:01;102583.72;;;0.35;100.00
13734;BME280;43298;52.560;13.508;2023-02-28T01:07:26;102588.66;;;0.29;100.00
13734;BME280;43298;52.560;13.508;2023-02-28T01:09:52;102583.84;;;0.12;100.00
13734;BME280;43298;52.560;13.508;2023-02-28T01:12:18;102580.38;;;0.08;100.00
13734;BME280;43298;52.560;13.508;2023-02-28T01:14:44;102584.59;;;0.08;100.00
13734;BME280;43298;52.560;13.508;2023-02-28T01:17:09;102590.19;;;-0.03;100.00
13734;BME280;43298;52.560;13.508;2023-02-28T01:19:35;102587.44;;;-0.10;100.00
13734;BME280;43298;52.560;13.508;2023-02-28T01:22:05;102585.69;;;-0.11;100.00
13734;BME280;43298;52.560;13.508;2023-02-28T01:24:32;102583.88;;;-0.15;100.00
13734;BME280;43298;52.560;13.508;2023-02-28T01:26:58;102580.25;;;-0.23;100.00
13734;BME280;43298;52.560;13.508;2023-02-28T01:29:24;102573.22;;;-0.30;100.00
13734;BME280;43298;52.560;13.508;2023-02-28T01:31:50;102574.72;;;-0.37;100.00
13734;BME280;43298;52.560;13.508;2023-02-28T01:34:17;102575.63;;;-0.35;100.00
13734;BME280;43298;52.560;13.508;2023-02-28T01:36:44;102574.38;;;-0.47;100.00
13734;BME280;43298;52.560;13.508;2023-02-28T01:39:11;102571.59;;;-0.55;100.00
13734;BME280;43298;52.560;13.508;2023-02-28T01:41:39;102570.50;;;-0.61;100.00
13734;BME280;43298;52.560;13.508;2023-02-28T01:45:04;102577.69;;;-0.75;100.00
13734;BME280;43298;52.560;13.508;2023-02-28T01:47:38;102571.44;;;-0.84;100.00
13734;BME280;43298;52.560;13.508;2023-02-28T01:50:11;102558.47;;;-0.92;100.00
13734;BME280;43298;52.560;13.508;2023-02-28T01:52:39;102566.69;;;-0.99;100.00
13734;BME280;43298;52.560;13.508;2023-02-28T01:55:07;102571.66;;;-1.02;100.00
13734;BME280;43298;52.560;13.508;2023-02-28T01:57:43;102572.06;;;-1.15;100.00
13734;BME280;43298;52.560;13.508;2023-02-28T02:00:15;102575.38;;;-1.17;100.00
13734;BME280;43298;52.560;13.508;2023-02-28T02:02:45;102573.50;;;-1.21;100.00
13734;BME280;43298;52.560;13.508;2023-02-28T02:05:19;102572.44;;;-1.28;100.00
13734;BME280;43298;52.560;13.508;2023-02-28T02:07:50;102573.78;;;-1.37;100.00
13734;BME280;43298;52.560;13.508;2023-02-28T02:10:20;102570.38;;;-1.38;100.00
13734;BME280;43298;52.560;13.508;2023-02-28T02:18:43;102570.47;;;-1.58;100.00
13734;BME280;43298;52.560;13.508;2023-02-28T02:24:58;102565.75;;;-1.71;100.00
13734;BME280;43298;52.560;13.508;2023-02-28T02:36:19;102566.44;;;-1.97;100.00
13734;BME280;43298;52.560;13.508;2023-02-28T02:41:36;102574.50;;;-1.85;100.00
13734;BME280;43298;52.560;13.508;2023-02-28T02:44:26;102571.19;;;-1.84;100.00
13734;BME280;43298;52.560;13.508;2023-02-28T02:46:59;102569.03;;;-1.74;100.00
13734;BME280;43298;52.560;13.508;2023-02-28T02:49:32;102563.97;;;-1.74;100.00
13734;BME280;43298;52.560;13.508;2023-02-28T02:52:09;102570.44;;;-1.82;100.00
13734;BME280;43298;52.560;13.508;2023-02-28T02:54:43;102570.25;;;-1.86;100.00
13734;BME280;43298;52.560;13.508;2023-02-28T02:57:20;102574.03;;;-1.97;100.00
13734;BME280;43298;52.560;13.508;2023-02-28T02:59:50;102573.41;;;-2.14;100.00
13734;BME280;43298;52.560;13.508;2023-02-28T03:02:18;102570.75;;;-2.17;100.00
13734;BME280;43298;52.560;13.508;2023-02-28T03:04:52;102570.63;;;-2.20;100.00
13734;BME280;43298;52.560;13.508;2023-02-28T03:07:19;102564.59;;;-2.23;100.00
13734;BME280;43298;52.560;13.508;2023-02-28T03:09:53;102569.22;;;-2.13;100.00
13734;BME280;43298;52.560;13.508;2023-02-28T03:12:21;102571.94;;;-2.29;100.00
13734;BME280;43298;52.560;13.508;2023-02-28T03:17:59;102574.75;;;-2.44;100.00
13734;BME280;43298;52.560;13.508;2023-02-28T03:26:27;102584.84;;;-2.23;100.00
13734;BME280;43298;52.560;13.508;2023-02-28T03:32:05;102581.81;;;-2.56;100.00
13734;BME280;43298;52.560;13.508;2023-02-28T03:34:41;102581.56;;;-2.62;100.00
13734;BME280;43298;52.560;13.508;2023-02-28T03:37:17;102580.16;;;-2.55;100.00
13734;BME280;43298;52.560;13.508;2023-02-28T03:40:05;102580.41;;;-2.70;100.00
13734;BME280;43298;52.560;13.508;2023-02-28T03:42:36;102577.66;;;-2.74;100.00
13734;BME280;43298;52.560;13.508;2023-02-28T03:45:15;102576.50;;;-2.82;100.00
13734;BME280;43298;52.560;13.508;2023-02-28T03:50:40;102586.84;;;-2.97;100.00
13734;BME280;43298;52.560;13.508;2023-02-28T03:54:02;102580.75;;;-2.81;100.00
13734;BME280;43298;52.560;13.508;2023-02-28T03:56:25;102582.84;;;-2.92;100.00
13734;BME280;43298;52.560;13.508;2023-02-28T03:59:21;102588.78;;;-2.91;100.00
13734;BME280;43298;52.560;13.508;2023-02-28T04:01:49;102579.81;;;-3.04;100.00
13734;BME280;43298;52.560;13.508;2023-02-28T04:04:17;102580.56;;;-3.05;100.00
13734;BME280;43298;52.560;13.508;2023-02-28T04:06:44;102580.00;;;-3.19;100.00
13734;BME280;43298;52.560;13.508;2023-02-28T04:09:13;102588.25;;;-3.23;100.00
13734;BME280;43298;52.560;13.508;2023-02-28T04:11:51;102584.66;;;-3.08;100.00
13734;BME280;43298;52.560;13.508;2023-02-28T04:14:18;102584.66;;;-3.08;100.00
13734;BME280;43298;52.560;13.508;2023-02-28T04:16:44;102581.72;;;-3.18;100.00
13734;BME280;43298;52.560;13.508;2023-02-28T04:19:11;102583.41;;;-3.18;100.00
13734;BME280;43298;52.560;13.508;2023-02-28T04:21:47;102585.97;;;-2.97;100.00
13734;BME280;43298;52.560;13.508;2023-02-28T04:24:24;102584.72;;;-3.07;100.00
13734;BME280;43298;52.560;13.508;2023-02-28T04:26:53;102592.19;;;-3.10;100.00
13734;BME280;43298;52.560;13.508;2023-02-28T04:29:28;102588.50;;;-2.97;100.00
13734;BME280;43298;52.560;13.508;2023-02-28T04:31:56;102586.97;;;-3.13;100.00
13734;BME280;43298;52.560;13.508;2023-02-28T04:34:24;102597.03;;;-3.15;100.00
13734;BME280;43298;52.560;13.508;2023-02-28T04:36:50;102587.06;;;-3.12;100.00
13734;BME280;43298;52.560;13.508;2023-02-28T04:39:20;102594.03;;;-3.06;100.00
13734;BME280;43298;52.560;13.508;2023-02-28T04:41:46;102589.19;;;-3.21;100.00
13734;BME280;43298;52.560;13.508;2023-02-28T04:44:12;102588.78;;;-3.30;100.00
13734;BME280;43298;52.560;13.508;2023-02-28T04:46:38;102591.19;;;-3.33;100.00
13734;BME280;43298;52.560;13.508;2023-02-28T04:49:04;102594.66;;;-3.31;100.00
13734;BME280;43298;52.560;13.508;2023-02-28T04:51:29;102594.66;;;-3.31;100.00
13734;BME280;43298;52.560;13.508;2023-02-28T04:53:56;102592.38;;;-3.44;100.00
13734;BME280;43298;52.560;13.508;2023-02-28T04:56:22;102598.75;;;-3.52;100.00
13734;BME280;43298;52.560;13.508;2023-02-28T04:58:48;102600.09;;;-3.41;100.00
13734;BME280;43298;52.560;13.508;2023-02-28T05:01:32;102606.47;;;-3.49;100.00
13734;BME280;43298;52.560;13.508;2023-02-28T05:04:00;102602.03;;;-3.54;100.00
13734;BME280;43298;52.560;13.508;2023-02-28T05:06:29;102604.81;;;-3.48;100.00
13734;BME280;43298;52.560;13.508;2023-02-28T05:08:56;102613.25;;;-3.67;100.00
13734;BME280;43298;52.560;13.508;2023-02-28T05:11:29;102614.00;;;-3.68;100.00
13734;BME280;43298;52.560;13.508;2023-02-28T05:14:11;102611.13;;;-3.58;100.00
13734;BME280;43298;52.560;13.508;2023-02-28T05:16:38;102610.91;;;-3.62;100.00
13734;BME280;43298;52.560;13.508;2023-02-28T05:19:04;102607.47;;;-3.45;100.00
13734;BME280;43298;52.560;13.508;2023-02-28T05:21:41;102602.53;;;-3.61;100.00
13734;BME280;43298;52.560;13.508;2023-02-28T05:24:11;102613.75;;;-3.74;100.00
13734;BME280;43298;52.560;13.508;2023-02-28T05:26:42;102609.16;;;-3.63;100.00
13734;BME280;43298;52.560;13.508;2023-02-28T05:29:09;102617.28;;;-3.70;100.00
13734;BME280;43298;52.560;13.508;2023-02-28T05:31:35;102616.91;;;-3.78;100.00
13734;BME280;43298;52.560;13.508;2023-02-28T05:34:01;102613.25;;;-3.67;100.00
13734;BME280;43298;52.560;13.508;2023-02-28T05:36:29;102619.56;;;-3.75;100.00
13734;BME280;43298;52.560;13.508;2023-02-28T05:38:55;102618.06;;;-3.89;100.00
13734;BME280;43298;52.560;13.508;2023-02-28T05:41:21;102621.34;;;-3.91;100.00
13734;BME280;43298;52.560;13.508;2023-02-28T05:43:48;102619.91;;;-3.86;100.00
13734;BME280;43298;52.560;13.508;2023-02-28T05:46:14;102620.13;;;-3.99;100.00
13734;BME280;43298;52.560;13.508;2023-02-28T05:48:42;102620.69;;;-4.05;100.00
13734;BME280;43298;52.560;13.508;2023-02-28T05:51:08;102629.78;;;-3.91;100.00
13734;BME280;43298;52.560;13.508;2023-02-28T05:53:35;102616.88;;;-3.97;100.00
13734;BME280;43298;52.560;13.508;2023-02-28T05:56:01;102623.16;;;-4.06;100.00
13734;BME280;43298;52.560;13.508;2023-02-28T05:58:27;102619.41;;;-4.14;100.00
13734;BME280;43298;52.560;13.508;2023-02-28T06:01:01;102625.28;;;-4.14;100.00
13734;BME280;43298;52.560;13.508;2023-02-28T06:03:44;102633.69;;;-4.15;100.00
13734;BME280;43298;52.560;13.508;2023-02-28T06:06:10;102626.41;;;-4.09;100.00
13734;BME280;43298;52.560;13.508;2023-02-28T06:08:35;102623.72;;;-4.12;100.00
13734;BME280;43298;52.560;13.508;2023-02-28T06:11:04;102630.41;;;-4.12;100.00
13734;BME280;43298;52.560;13.508;2023-02-28T06:13:29;102635.41;;;-4.14;100.00
13734;BME280;43298;52.560;13.508;2023-02-28T06:15:55;102628.69;;;-3.96;100.00
13734;BME280;43298;52.560;13.508;2023-02-28T06:18:21;102636.19;;;-3.97;100.00
13734;BME280;43298;52.560;13.508;2023-02-28T06:20:55;102640.16;;;-4.02;100.00
13734;BME280;43298;52.560;13.508;2023-02-28T06:23:23;102640.91;;;-4.05;100.00
13734;BME280;43298;52.560;13.508;2023-02-28T06:25:49;102639.38;;;-4.01;100.00
13734;BME280;43298;52.560;13.508;2023-02-28T06:28:15;102646.59;;;-3.91;100.00
13734;BME280;43298;52.560;13.508;2023-02-28T06:30:41;102645.25;;;-3.85;100.00
13734;BME280;43298;52.560;13.508;2023-02-28T06:33:07;102649.25;;;-3.71;100.00
13734;BME280;43298;52.560;13.508;2023-02-28T06:35:33;102654.19;;;-3.74;100.00
13734;BME280;43298;52.560;13.508;2023-02-28T06:37:58;102652.66;;;-3.70;100.00
13734;BME280;43298;52.560;13.508;2023-02-28T06:40:24;102659.56;;;-3.66;100.00
13734;BME280;43298;52.560;13.508;2023-02-28T06:42:50;102661.66;;;-3.58;100.00
13734;BME280;43298;52.560;13.508;2023-02-28T06:45:16;102667.19;;;-3.30;100.00
13734;BME280;43298;52.560;13.508;2023-02-28T06:47:42;102662.78;;;-3.15;100.00
13734;BME280;43298;52.560;13.508;2023-02-28T06:50:11;102665.28;;;-2.97;100.00
13734;BME280;43298;52.560;13.508;2023-02-28T06:52:38;102666.09;;;-2.79;100.00
13734;BME280;43298;52.560;13.508;2023-02-28T06:55:06;102670.50;;;-2.54;100.00
13734;BME280;43298;52.560;13.508;2023-02-28T06:57:34;102675.09;;;-2.25;100.00
13734;BME280;43298;52.560;13.508;2023-02-28T07:00:02;102680.63;;;-1.94;100.00
13734;BME280;43298;52.560;13.508;2023-02-28T07:02:32;102681.09;;;-1.82;100.00
13734;BME280;43298;52.560;13.508;2023-02-28T07:04:57;102688.50;;;-1.66;100.00
13734;BME280;43298;52.560;13.508;2023-02-28T07:07:24;102688.06;;;-1.34;100.00
13734;BME280;43298;52.560;13.508;2023-02-28T07:09:49;102674.16;;;-1.22;100.00
13734;BME280;43298;52.560;13.508;2023-02-28T07:12:15;102676.78;;;-0.97;100.00
13734;BME280;43298;52.560;13.508;2023-02-28T07:14:41;102669.53;;;-0.86;100.00
13734;BME280;43298;52.560;13.508;2023-02-28T07:17:09;102669.31;;;-0.69;100.00
13734;BME280;43298;52.560;13.508;2023-02-28T07:19:40;102670.91;;;-0.47;100.00
13734;BME280;43298;52.560;13.508;2023-02-28T07:22:06;102674.00;;;-0.31;100.00
13734;BME280;43298;52.560;13.508;2023-02-28T07:24:32;102669.53;;;-0.13;100.00
13734;BME280;43298;52.560;13.508;2023-02-28T07:26:58;102665.84;;;0.04;100.00
13734;BME280;43298;52.560;13.508;2023-02-28T07:29:25;102668.41;;;0.31;100.00
13734;BME280;43298;52.560;13.508;2023-02-28T07:31:51;102669.34;;;0.61;100.00
13734;BME280;43298;52.560;13.508;2023-02-28T07:34:19;102665.06;;;0.90;100.00
13734;BME280;43298;52.560;13.508;2023-02-28T07:36:45;102657.47;;;0.91;100.00
13734;BME280;43298;52.560;13.508;2023-02-28T07:39:11;102660.44;;;1.06;100.00
13734;BME280;43298;52.560;13.508;2023-02-28T07:41:37;102654.75;;;1.15;100.00
13734;BME280;43298;52.560;13.508;2023-02-28T07:44:12;102651.75;;;1.62;100.00
13734;BME280;43298;52.560;13.508;2023-02-28T07:46:39;102655.34;;;2.04;100.00
13734;BME280;43298;52.560;13.508;2023-02-28T07:49:06;102650.25;;;2.04;100.00
13734;BME280;43298;52.560;13.508;2023-02-28T07:51:32;102655.00;;;2.24;100.00
13734;BME280;43298;52.560;13.508;2023-02-28T07:53:58;102640.34;;;2.54;100.00
13734;BME280;43298;52.560;13.508;2023-02-28T07:56:24;102635.22;;;2.94;100.00
13734;BME280;43298;52.560;13.508;2023-02-28T07:58:50;102634.34;;;2.92;100.00
13734;BME280;43298;52.560;13.508;2023-02-28T08:01:16;102639.44;;;3.36;100.00
13734;BME280;43298;52.560;13.508;2023-02-28T08:03:42;102651.03;;;3.65;100.00
13734;BME280;43298;52.560;13.508;2023-02-28T08:06:20;102669.22;;;3.81;100.00
13734;BME280;43298;52.560;13.508;2023-02-28T08:08:48;102664.66;;;4.16;100.00
13734;BME280;43298;52.560;13.508;2023-02-28T08:11:14;102660.59;;;4.28;100.00
13734;BME280;43298;52.560;13.508;2023-02-28T08:13:40;102671.44;;;4.12;100.00
13734;BME280;43298;52.560;13.508;2023-02-28T08:16:08;102669.25;;;4.35;100.00
13734;BME280;43298;52.560;13.508;2023-02-28T08:18:34;102665.19;;;4.52;100.00
13734;BME280;43298;52.560;13.508;2023-02-28T08:21:04;102669.59;;;4.62;100.00
13734;BME280;43298;52.560;13.508;2023-02-28T08:23:30;102661.66;;;4.44;100.00
13734;BME280;43298;52.560;13.508;2023-02-28T08:25:56;102654.53;;;4.84;100.00
13734;BME280;43298;52.560;13.508;2023-02-28T08:28:22;102652.84;;;4.85;100.00
13734;BME280;43298;52.560;13.508;2023-02-28T08:30:48;102657.38;;;5.07;100.00
13734;BME280;43298;52.560;13.508;2023-02-28T08:33:14;102652.94;;;4.94;100.00
13734;BME280;43298;52.560;13.508;2023-02-28T08:35:40;102649.03;;;5.26;100.00
13734;BME280;43298;52.560;13.508;2023-02-28T08:38:06;102657.63;;;5.28;100.00
13734;BME280;43298;52.560;13.508;2023-02-28T08:40:31;102656.88;;;5.41;98.25
13734;BME280;43298;52.560;13.508;2023-02-28T08:42:57;102658.66;;;5.48;97.21
13734;BME280;43298;52.560;13.508;2023-02-28T08:45:24;102664.84;;;5.66;95.94
13734;BME280;43298;52.560;13.508;2023-02-28T08:47:50;102654.34;;;5.44;95.42
13734;BME280;43298;52.560;13.508;2023-02-28T08:50:18;102655.19;;;5.41;89.75
13734;BME280;43298;52.560;13.508;2023-02-28T08:52:44;102659.38;;;5.33;85.79
13734;BME280;43298;52.560;13.508;2023-02-28T08:55:10;102660.41;;;5.49;84.44
13734;BME280;43298;52.560;13.508;2023-02-28T08:57:36;102662.44;;;5.81;82.02
13734;BME280;43298;52.560;13.508;2023-02-28T09:00:03;102663.41;;;5.95;78.87
13734;BME280;43298;52.560;13.508;2023-02-28T09:02:31;102659.97;;;5.92;77.04
13734;BME280;43298;52.560;13.508;2023-02-28T09:04:57;102660.16;;;6.13;76.78
13734;BME280;43298;52.560;13.508;2023-02-28T09:07:24;102661.78;;;6.02;75.22
13734;BME280;43298;52.560;13.508;2023-02-28T09:09:50;102664.84;;;5.68;73.40
13734;BME280;43298;52.560;13.508;2023-02-28T09:12:27;102663.25;;;5.80;75.23
13734;BME280;43298;52.560;13.508;2023-02-28T09:14:57;102660.78;;;5.86;75.20
13734;BME280;43298;52.560;13.508;2023-02-28T09:17:23;102659.63;;;5.56;73.89
13734;BME280;43298;52.560;13.508;2023-02-28T09:19:49;102656.56;;;5.11;73.50
13734;BME280;43298;52.560;13.508;2023-02-28T09:22:14;102665.38;;;5.35;73.93
13734;BME280;43298;52.560;13.508;2023-02-28T09:24:41;102654.28;;;5.39;72.93
13734;BME280;43298;52.560;13.508;2023-02-28T09:27:07;102656.91;;;5.44;73.56
13734;BME280;43298;52.560;13.508;2023-02-28T09:29:34;102655.09;;;5.34;70.69
13734;BME280;43298;52.560;13.508;2023-02-28T09:32:00;102661.78;;;5.17;71.32
13734;BME280;43298;52.560;13.508;2023-02-28T09:34:27;102658.34;;;5.18;72.50
13734;BME280;43298;52.560;13.508;2023-02-28T09:36:53;102660.63;;;5.73;72.14
13734;BME280;43298;52.560;13.508;2023-02-28T09:39:22;102651.91;;;5.53;69.21
13734;BME280;43298;52.560;13.508;2023-02-28T09:41:51;102660.00;;;5.96;67.45
13734;BME280;43298;52.560;13.508;2023-02-28T09:44:40;102651.72;;;6.34;67.79
13734;BME280;43298;52.560;13.508;2023-02-28T09:52:54;102665.66;;;6.78;69.13
13734;BME280;43298;52.560;13.508;2023-02-28T09:55:30;102667.16;;;6.38;68.91
13734;BME280;43298;52.560;13.508;2023-02-28T09:58:00;102658.50;;;6.22;66.71
13734;BME280;43298;52.560;13.508;2023-02-28T10:00:40;102663.53;;;6.06;66.27
13734;BME280;43298;52.560;13.508;2023-02-28T10:03:32;102666.19;;;6.19;65.85
13734;BME280;43298;52.560;13.508;2023-02-28T10:06:42;102669.47;;;6.00;65.69
13734;BME280;43298;52.560;13.508;2023-02-28T10:09:24;102661.22;;;6.48;65.13
13734;BME280;43298;52.560;13.508;2023-02-28T10:11:52;102660.56;;;6.85;65.61
13734;BME280;43298;52.560;13.508;2023-02-28T10:14:27;102664.13;;;7.25;64.36
13734;BME280;43298;52.560;13.508;2023-02-28T10:16:59;102668.34;;;7.05;63.46
13734;BME280;43298;52.560;13.508;2023-02-28T10:22:22;102670.03;;;6.94;62.39
13734;BME280;43298;52.560;13.508;2023-02-28T10:24:53;102664.09;;;7.16;62.02
13734;BME280;43298;52.560;13.508;2023-02-28T10:27:25;102664.19;;;7.41;62.15
13734;BME280;43298;52.560;13.508;2023-02-28T10:29:55;102670.81;;;6.79;61.36
13734;BME280;43298;52.560;13.508;2023-02-28T10:32:33;102662.81;;;6.27;62.49
13734;BME280;43298;52.560;13.508;2023-02-28T10:35:20;102671.44;;;6.39;63.29
13734;BME280;43298;52.560;13.508;2023-02-28T10:37:56;102668.78;;;6.28;63.73
13734;BME280;43298;52.560;13.508;2023-02-28T10:43:27;102662.78;;;6.23;63.36
13734;BME280;43298;52.560;13.508;2023-02-28T10:46:13;102662.28;;;6.89;62.82
13734;BME280;43298;52.560;13.508;2023-02-28T10:49:28;102663.22;;;7.12;63.40
13734;BME280;43298;52.560;13.508;2023-02-28T10:51:58;102665.63;;;6.70;63.77
13734;BME280;43298;52.560;13.508;2023-02-28T10:54:36;102656.19;;;6.71;64.23
13734;BME280;43298;52.560;13.508;2023-02-28T10:57:22;102651.22;;;7.05;64.62
13734;BME280;43298;52.560;13.508;2023-02-28T11:00:13;102653.84;;;7.29;63.47
13734;BME280;43298;52.560;13.508;2023-02-28T11:02:40;102645.28;;;7.39;62.85
13734;BME280;43298;52.560;13.508;2023-02-28T11:05:33;102645.34;;;7.62;62.59
13734;BME280;43298;52.560;13.508;2023-02-28T11:08:17;102634.06;;;7.07;62.83
13734;BME280;43298;52.560;13.508;2023-02-28T11:10:53;102634.78;;;6.69;64.16
13734;BME280;43298;52.560;13.508;2023-02-28T11:13:24;102631.09;;;6.20;65.42
13734;BME280;43298;52.560;13.508;2023-02-28T11:15:57;102633.41;;;5.90;66.28
13734;BME280;43298;52.560;13.508;2023-02-28T11:18:51;102625.69;;;5.85;68.21
13734;BME280;43298;52.560;13.508;2023-02-28T11:21:34;102625.63;;;5.79;66.73
13734;BME280;43298;52.560;13.508;2023-02-28T11:24:29;102623.13;;;5.87;66.28
13734;BME280;43298;52.560;13.508;2023-02-28T11:26:56;102625.91;;;6.14;67.38
13734;BME280;43298;52.560;13.508;2023-02-28T11:29:29;102631.75;;;5.95;66.13
13734;BME280;43298;52.560;13.508;2023-02-28T11:34:32;102623.50;;;6.44;63.66
13734;BME280;43298;52.560;13.508;2023-02-28T11:36:59;102625.31;;;6.62;63.16
13734;BME280;43298;52.560;13.508;2023-02-28T11:39:27;102628.06;;;7.11;63.74
13734;BME280;43298;52.560;13.508;2023-02-28T11:47:38;102625.41;;;6.80;61.13
13734;BME280;43298;52.560;13.508;2023-02-28T11:56:03;102626.34;;;7.04;62.96
13734;BME280;43298;52.560;13.508;2023-02-28T11:59:02;102630.63;;;7.02;61.81
13734;BME280;43298;52.560;13.508;2023-02-28T12:05:10;102620.38;;;7.17;62.96
13734;BME280;43298;52.560;13.508;2023-02-28T12:08:42;102624.69;;;7.32;63.21
13734;BME280;43298;52.560;13.508;2023-02-28T12:11:34;102623.03;;;7.70;63.46
13734;BME280;43298;52.560;13.508;2023-02-28T12:20:13;102606.69;;;8.26;61.50
13734;BME280;43298;52.560;13.508;2023-02-28T12:23:05;102602.41;;;7.94;61.07
13734;BME280;43298;52.560;13.508;2023-02-28T12:25:56;102592.94;;;8.27;58.47
13734;BME280;43298;52.560;13.508;2023-02-28T12:28:29;102591.19;;;8.44;59.11
13734;BME280;43298;52.560;13.508;2023-02-28T12:31:19;102581.75;;;8.37;58.41
13734;BME280;43298;52.560;13.508;2023-02-28T12:34:14;102578.94;;;8.90;56.50
13734;BME280;43298;52.560;13.508;2023-02-28T12:36:43;102578.28;;;8.44;56.62
13734;BME280;43298;52.560;13.508;2023-02-28T12:41:46;102565.50;;;7.35;58.92
13734;BME280;43298;52.560;13.508;2023-02-28T12:44:44;102556.06;;;7.29;61.26
13734;BME280;43298;52.560;13.508;2023-02-28T12:47:17;102551.78;;;7.79;61.34
13734;BME280;43298;52.560;13.508;2023-02-28T12:49:54;102550.84;;;8.28;59.87
13734;BME280;43298;52.560;13.508;2023-02-28T12:52:54;102543.19;;;7.86;60.44
13734;BME280;43298;52.560;13.508;2023-02-28T12:58:48;102542.34;;;7.74;58.06
13734;BME280;43298;52.560;13.508;2023-02-28T13:10:46;102522.50;;;8.10;58.11
13734;BME280;43298;52.560;13.508;2023-02-28T13:13:19;102528.47;;;8.39;56.32
13734;BME280;43298;52.560;13.508;2023-02-28T13:18:38;102520.78;;;8.17;57.37
13734;BME280;43298;52.560;13.508;2023-02-28T13:21:08;102517.34;;;8.28;57.21
13734;BME280;43298;52.560;13.508;2023-02-28T13:23:58;102532.91;;;7.74;57.31
13734;BME280;43298;52.560;13.508;2023-02-28T13:35:11;102530.25;;;8.12;58.32
13734;BME280;43298;52.560;13.508;2023-02-28T13:37:36;102536.34;;;7.61;56.74
13734;BME280;43298;52.560;13.508;2023-02-28T13:40:33;102531.16;;;7.76;57.21
13734;BME280;43298;52.560;13.508;2023-02-28T13:43:08;102515.75;;;7.75;57.93
13734;BME280;43298;52.560;13.508;2023-02-28T13:45:34;102526.03;;;7.64;57.42
13734;BME280;43298;52.560;13.508;2023-02-28T13:48:25;102520.91;;;7.52;58.14
13734;BME280;43298;52.560;13.508;2023-02-28T13:50:52;102520.91;;;7.73;57.56
13734;BME280;43298;52.560;13.508;2023-02-28T13:53:53;102508.00;;;7.79;57.10
13734;BME280;43298;52.560;13.508;2023-02-28T13:56:33;102512.31;;;7.65;57.05
13734;BME280;43298;52.560;13.508;2023-02-28T14:07:49;102513.16;;;7.00;59.55
13734;BME280;43298;52.560;13.508;2023-02-28T14:10:31;102500.22;;;6.65;59.70
13734;BME280;43298;52.560;13.508;2023-02-28T14:16:03;102507.88;;;6.40;61.51
13734;BME280;43298;52.560;13.508;2023-02-28T14:18:35;102514.81;;;6.68;61.48
13734;BME280;43298;52.560;13.508;2023-02-28T14:21:43;102509.63;;;6.56;62.55
13734;BME280;43298;52.560;13.508;2023-02-28T14:36:41;102509.22;;;5.76;64.47
13734;BME280;43298;52.560;13.508;2023-02-28T14:39:14;102504.13;;;5.80;65.11
13734;BME280;43298;52.560;13.508;2023-02-28T14:41:43;102510.19;;;5.90;65.71
13734;BME280;43298;52.560;13.508;2023-02-28T14:44:27;102505.94;;;5.93;66.46
13734;BME280;43298;52.560;13.508;2023-02-28T14:47:01;102505.97;;;5.95;66.59
13734;BME280;43298;52.560;13.508;2023-02-28T14:49:36;102499.78;;;5.72;67.62
13734;BME280;43298;52.560;13.508;2023-02-28T14:54:39;102498.03;;;5.66;67.42
13734;BME280;43298;52.560;13.508;2023-02-28T14:57:06;102504.88;;;5.63;67.62
13734;BME280;43298;52.560;13.508;2023-02-28T14:59:35;102494.59;;;5.66;67.88
13734;BME280;43298;52.560;13.508;2023-02-28T15:02:22;102493.66;;;5.53;68.06
13734;BME280;43298;52.560;13.508;2023-02-28T15:05:00;102489.38;;;5.52;68.35
13734;BME280;43298;52.560;13.508;2023-02-28T15:07:27;102485.22;;;5.68;68.97
13734;BME280;43298;52.560;13.508;2023-02-28T15:16:15;102481.72;;;5.57;70.41